sensor_id;sensor_type;location;lat;lon;timestamp;P1;durP1;ratioP1;P2;durP2;ratioP2
58366;SDS011;57745;42.524;12.052;2024-02-14T00:00:09;1.30;;;0.80;;
58366;SDS011;57745;42.524;12.052;2024-02-14T00:05:10;1.20;;;0.70;;
58366;SDS011;57745;42.524;12.052;2024-02-14T00:07:39;1.90;;;0.80;;
58366;SDS011;57745;42.524;12.052;2024-02-14T00:10:07;1.35;;;0.88;;
58366;SDS011;57745;42.524;12.052;2024-02-14T00:12:33;1.80;;;0.90;;
58366;SDS011;57745;42.524;12.052;2024-02-14T00:15:00;0.85;;;0.63;;
58366;SDS011;57745;42.524;12.052;2024-02-14T00:17:28;1.10;;;0.80;;
58366;SDS011;57745;42.524;12.052;2024-02-14T00:19:55;1.15;;;0.70;;
58366;SDS011;57745;42.524;12.052;2024-02-14T00:22:20;1.00;;;0.68;;
58366;SDS011;57745;42.524;12.052;2024-02-14T00:24:46;0.88;;;0.50;;
58366;SDS011;57745;42.524;12.052;2024-02-14T00:27:12;1.27;;;0.80;;
58366;SDS011;57745;42.524;12.052;2024-02-14T00:29:39;1.05;;;0.75;;
58366;SDS011;57745;42.524;12.052;2024-02-14T00:32:05;1.83;;;0.90;;
58366;SDS011;57745;42.524;12.052;2024-02-14T00:34:30;1.60;;;0.73;;
58366;SDS011;57745;42.524;12.052;2024-02-14T00:36:56;1.25;;;0.80;;
58366;SDS011;57745;42.524;12.052;2024-02-14T00:39:21;1.30;;;0.80;;
58366;SDS011;57745;42.524;12.052;2024-02-14T00:41:47;2.63;;;1.08;;
58366;SDS011;57745;42.524;12.052;2024-02-14T00:44:13;2.03;;;0.70;;
58366;SDS011;57745;42.524;12.052;2024-02-14T00:46:42;1.30;;;0.80;;
58366;SDS011;57745;42.524;12.052;2024-02-14T00:49:08;1.38;;;0.80;;
58366;SDS011;57745;42.524;12.052;2024-02-14T00:51:35;1.35;;;0.90;;
58366;SDS011;57745;42.524;12.052;2024-02-14T00:54:02;1.20;;;0.90;;
58366;SDS011;57745;42.524;12.052;2024-02-14T00:56:28;1.42;;;1.08;;
58366;SDS011;57745;42.524;12.052;2024-02-14T00:58:53;1.85;;;1.30;;
58366;SDS011;57745;42.524;12.052;2024-02-14T01:01:19;1.55;;;0.98;;
58366;SDS011;57745;42.524;12.052;2024-02-14T01:03:44;1.55;;;1.00;;
58366;SDS011;57745;42.524;12.052;2024-02-14T01:06:10;1.45;;;1.00;;
58366;SDS011;57745;42.524;12.052;2024-02-14T01:08:36;1.83;;;1.13;;
58366;SDS011;57745;42.524;12.052;2024-02-14T01:11:01;5.53;;;1.67;;
58366;SDS011;57745;42.524;12.052;2024-02-14T01:13:27;1.15;;;0.82;;
58366;SDS011;57745;42.524;12.052;2024-02-14T01:15:52;1.85;;;1.08;;
58366;SDS011;57745;42.524;12.052;2024-02-14T01:18:18;1.88;;;1.00;;
58366;SDS011;57745;42.524;12.052;2024-02-14T01:20:43;2.42;;;1.10;;
58366;SDS011;57745;42.524;12.052;2024-02-14T01:23:09;2.08;;;0.90;;
58366;SDS011;57745;42.524;12.052;2024-02-14T01:25:34;1.92;;;0.90;;
58366;SDS011;57745;42.524;12.052;2024-02-14T01:28:00;2.50;;;0.98;;
58366;SDS011;57745;42.524;12.052;2024-02-14T01:30:26;1.05;;;0.70;;
58366;SDS011;57745;42.524;12.052;2024-02-14T01:32:51;2.42;;;0.90;;
58366;SDS011;57745;42.524;12.052;2024-02-14T01:35:18;2.03;;;0.95;;
58366;SDS011;57745;42.524;12.052;2024-02-14T01:37:43;1.58;;;0.93;;
58366;SDS011;57745;42.524;12.052;2024-02-14T01:40:10;1.65;;;0.90;;
58366;SDS011;57745;42.524;12.052;2024-02-14T01:42:36;1.13;;;1.00;;
58366;SDS011;57745;42.524;12.052;2024-02-14T01:45:01;1.58;;;0.80;;
58366;SDS011;57745;42.524;12.052;2024-02-14T01:47:28;1.20;;;0.90;;
58366;SDS011;57745;42.524;12.052;2024-02-14T01:49:54;2.10;;;0.90;;
58366;SDS011;57745;42.524;12.052;2024-02-14T01:52:19;1.85;;;1.02;;
58366;SDS011;57745;42.524;12.052;2024-02-14T01:54:46;1.85;;;1.20;;
58366;SDS011;57745;42.524;12.052;2024-02-14T01:57:12;3.05;;;1.30;;
58366;SDS011;57745;42.524;12.052;2024-02-14T01:59:38;2.35;;;1.23;;
58366;SDS011;57745;42.524;12.052;2024-02-14T02:02:04;2.80;;;1.33;;
58366;SDS011;57745;42.524;12.052;2024-02-14T02:04:34;2.22;;;1.30;;
58366;SDS011;57745;42.524;12.052;2024-02-14T02:07:00;1.70;;;1.10;;
58366;SDS011;57745;42.524;12.052;2024-02-14T02:09:26;2.03;;;1.25;;
58366;SDS011;57745;42.524;12.052;2024-02-14T02:11:52;2.83;;;1.20;;
58366;SDS011;57745;42.524;12.052;2024-02-14T02:14:26;3.00;;;1.20;;
58366;SDS011;57745;42.524;12.052;2024-02-14T02:16:52;1.63;;;1.30;;
58366;SDS011;57745;42.524;12.052;2024-02-14T02:19:18;2.75;;;1.40;;
58366;SDS011;57745;42.524;12.052;2024-02-14T02:21:44;2.38;;;1.27;;
58366;SDS011;57745;42.524;12.052;2024-02-14T02:24:12;1.65;;;1.00;;
58366;SDS011;57745;42.524;12.052;2024-02-14T02:26:37;1.40;;;1.17;;
58366;SDS011;57745;42.524;12.052;2024-02-14T02:29:03;1.95;;;1.10;;
58366;SDS011;57745;42.524;12.052;2024-02-14T02:31:30;2.20;;;1.00;;
58366;SDS011;57745;42.524;12.052;2024-02-14T02:33:56;2.08;;;1.00;;
58366;SDS011;57745;42.524;12.052;2024-02-14T02:36:21;0.93;;;0.80;;
58366;SDS011;57745;42.524;12.052;2024-02-14T02:38:49;1.40;;;1.00;;
58366;SDS011;57745;42.524;12.052;2024-02-14T02:41:15;2.30;;;1.05;;
58366;SDS011;57745;42.524;12.052;2024-02-14T02:43:40;1.80;;;0.93;;
58366;SDS011;57745;42.524;12.052;2024-02-14T02:46:06;4.18;;;0.98;;
58366;SDS011;57745;42.524;12.052;2024-02-14T02:48:34;1.60;;;1.00;;
58366;SDS011;57745;42.524;12.052;2024-02-14T02:50:59;2.22;;;0.80;;
58366;SDS011;57745;42.524;12.052;2024-02-14T02:53:25;1.42;;;0.70;;
58366;SDS011;57745;42.524;12.052;2024-02-14T02:55:50;1.27;;;1.00;;
58366;SDS011;57745;42.524;12.052;2024-02-14T02:58:16;1.25;;;0.77;;
58366;SDS011;57745;42.524;12.052;2024-02-14T03:00:42;1.13;;;0.75;;
58366;SDS011;57745;42.524;12.052;2024-02-14T03:03:08;1.92;;;0.80;;
58366;SDS011;57745;42.524;12.052;2024-02-14T03:05:36;1.70;;;0.85;;
58366;SDS011;57745;42.524;12.052;2024-02-14T03:08:04;1.45;;;1.00;;
58366;SDS011;57745;42.524;12.052;2024-02-14T03:10:29;0.95;;;0.65;;
58366;SDS011;57745;42.524;12.052;2024-02-14T03:12:55;1.08;;;0.70;;
58366;SDS011;57745;42.524;12.052;2024-02-14T03:15:21;1.00;;;0.80;;
58366;SDS011;57745;42.524;12.052;2024-02-14T03:17:46;1.10;;;0.70;;
58366;SDS011;57745;42.524;12.052;2024-02-14T03:20:12;1.15;;;0.88;;
58366;SDS011;57745;42.524;12.052;2024-02-14T03:22:41;1.88;;;0.80;;
58366;SDS011;57745;42.524;12.052;2024-02-14T03:25:11;1.83;;;0.90;;
58366;SDS011;57745;42.524;12.052;2024-02-14T03:27:39;1.63;;;1.00;;
58366;SDS011;57745;42.524;12.052;2024-02-14T03:30:05;1.33;;;0.80;;
58366;SDS011;57745;42.524;12.052;2024-02-14T03:32:31;1.23;;;0.93;;
58366;SDS011;57745;42.524;12.052;2024-02-14T03:34:58;3.65;;;0.85;;
58366;SDS011;57745;42.524;12.052;2024-02-14T03:37:23;1.80;;;0.85;;
58366;SDS011;57745;42.524;12.052;2024-02-14T03:39:49;0.88;;;0.70;;
58366;SDS011;57745;42.524;12.052;2024-02-14T03:42:14;1.40;;;1.00;;
58366;SDS011;57745;42.524;12.052;2024-02-14T03:44:40;0.90;;;0.80;;
58366;SDS011;57745;42.524;12.052;2024-02-14T03:47:06;1.65;;;1.00;;
58366;SDS011;57745;42.524;12.052;2024-02-14T03:49:31;2.10;;;1.10;;
58366;SDS011;57745;42.524;12.052;2024-02-14T03:51:57;2.22;;;0.90;;
58366;SDS011;57745;42.524;12.052;2024-02-14T03:54:22;1.45;;;0.95;;
58366;SDS011;57745;42.524;12.052;2024-02-14T03:56:48;1.80;;;1.10;;
58366;SDS011;57745;42.524;12.052;2024-02-14T03:59:14;5.40;;;1.63;;
58366;SDS011;57745;42.524;12.052;2024-02-14T04:01:48;2.10;;;1.00;;
58366;SDS011;57745;42.524;12.052;2024-02-14T04:04:14;2.83;;;1.00;;
58366;SDS011;57745;42.524;12.052;2024-02-14T04:06:40;4.05;;;0.88;;
58366;SDS011;57745;42.524;12.052;2024-02-14T04:09:07;2.08;;;1.40;;
58366;SDS011;57745;42.524;12.052;2024-02-14T04:11:33;2.88;;;0.98;;
58366;SDS011;57745;42.524;12.052;2024-02-14T04:37:31;0.98;;;0.60;;
58366;SDS011;57745;42.524;12.052;2024-02-14T05:06:58;2.50;;;1.35;;
58366;SDS011;57745;42.524;12.052;2024-02-14T05:23:10;1.45;;;0.90;;
58366;SDS011;57745;42.524;12.052;2024-02-14T05:39:02;1.50;;;0.88;;
58366;SDS011;57745;42.524;12.052;2024-02-14T06:07:46;1.23;;;0.88;;
58366;SDS011;57745;42.524;12.052;2024-02-14T06:37:05;3.92;;;1.13;;
58366;SDS011;57745;42.524;12.052;2024-02-14T06:52:59;6.35;;;2.35;;
58366;SDS011;57745;42.524;12.052;2024-02-14T07:37:49;3.67;;;1.10;;
58366;SDS011;57745;42.524;12.052;2024-02-14T07:53:40;3.00;;;1.00;;
58366;SDS011;57745;42.524;12.052;2024-02-14T08:22:53;1.58;;;0.85;;
58366;SDS011;57745;42.524;12.052;2024-02-14T08:52:12;2.42;;;1.10;;
58366;SDS011;57745;42.524;12.052;2024-02-14T09:08:08;1.83;;;0.93;;
58366;SDS011;57745;42.524;12.052;2024-02-14T09:23:59;1.60;;;0.90;;
58366;SDS011;57745;42.524;12.052;2024-02-14T10:23:03;4.90;;;0.90;;
58366;SDS011;57745;42.524;12.052;2024-02-14T10:52:30;1.77;;;0.75;;
58366;SDS011;57745;42.524;12.052;2024-02-14T11:22:12;1.48;;;0.80;;
58366;SDS011;57745;42.524;12.052;2024-02-14T11:38:10;2.70;;;1.23;;
58366;SDS011;57745;42.524;12.052;2024-02-14T12:07:29;1.58;;;0.88;;
58366;SDS011;57745;42.524;12.052;2024-02-14T12:23:22;2.38;;;1.30;;
58366;SDS011;57745;42.524;12.052;2024-02-14T12:39:15;2.33;;;0.93;;
58366;SDS011;57745;42.524;12.052;2024-02-14T13:08:09;3.55;;;1.67;;
58366;SDS011;57745;42.524;12.052;2024-02-14T13:37:31;4.13;;;1.38;;
58366;SDS011;57745;42.524;12.052;2024-02-14T13:53:24;2.22;;;1.38;;
58366;SDS011;57745;42.524;12.052;2024-02-14T14:22:43;2.58;;;1.60;;
58366;SDS011;57745;42.524;12.052;2024-02-14T15:08:16;6.65;;;4.55;;
58366;SDS011;57745;42.524;12.052;2024-02-14T15:10:43;6.32;;;4.63;;
58366;SDS011;57745;42.524;12.052;2024-02-14T15:23:15;4.85;;;3.20;;
58366;SDS011;57745;42.524;12.052;2024-02-14T15:52:36;6.40;;;4.03;;
58366;SDS011;57745;42.524;12.052;2024-02-14T16:23:42;11.48;;;6.57;;
58366;SDS011;57745;42.524;12.052;2024-02-14T16:39:34;7.75;;;5.80;;
58366;SDS011;57745;42.524;12.052;2024-02-14T17:38:25;8.40;;;5.75;;
58366;SDS011;57745;42.524;12.052;2024-02-14T17:54:18;6.72;;;4.50;;
58366;SDS011;57745;42.524;12.052;2024-02-14T18:53:27;12.75;;;9.32;;
58366;SDS011;57745;42.524;12.052;2024-02-14T19:22:47;18.48;;;13.68;;
58366;SDS011;57745;42.524;12.052;2024-02-14T20:24:24;8.13;;;4.63;;
58366;SDS011;57745;42.524;12.052;2024-02-14T21:08:06;5.70;;;3.70;;
58366;SDS011;57745;42.524;12.052;2024-02-14T21:23:58;6.80;;;3.80;;
58366;SDS011;57745;42.524;12.052;2024-02-14T22:07:48;4.47;;;2.63;;
58366;SDS011;57745;42.524;12.052;2024-02-14T22:23:41;5.30;;;2.47;;
58366;SDS011;57745;42.524;12.052;2024-02-14T22:53:00;3.90;;;2.00;;
58366;SDS011;57745;42.524;12.052;2024-02-14T23:38:43;2.35;;;1.52;;
58366;SDS011;57745;42.524;12.052;2024-02-14T23:41:09;3.42;;;1.60;;
58366;SDS011;57745;42.524;12.052;2024-02-14T23:53:40;4.60;;;1.70;;
